Latest METARs, TAFs and NOTAMs for SKBQ


---------------------------------------------------------------------------
	(OBSERVATIONS)
SKBQ 241000Z 01008KT 9999 FEW015 BKN070 26/24 A2986=
SKBQ 240900Z 01010KT 9999 FEW015 SCT200 26/24 A2985=
SKBQ 240800Z 01014KT 9999 SCT015 26/24 A2985=
---------------------------------------------------------------------------
	(TERMINAL AREA FORECAST)
SKBQ 240500Z 2406/2506 34010KT 9999 SCT017
    TEMPO 2410/2413 5000 BR SCT012
    TEMPO 2420/2424 7000 VCSH SCT017CB
    TX32/2418Z TN24/2411Z=
---------------------------------------------------------------------------
	(NOTAMS)


SKBQ A0046/17 IAP RNAV (GNSS) RWY 23 NO AVBL. 05 JAN 15:40 2017
    UNTIL 05 APR 23:59 2017 ESTIMATED. CREATED: 05 JAN 15:36
    2017

SKBQ A0384/17 TWY E SECT C, CLSD. H24, 06 FEB 17:58 2017 UNTIL
    07 MAY 23:59 2017. CREATED: 06 FEB 18:03 2017

SKBQ A0386/17 POINT Z RELOCATED TEMPO NEXT COORD 105342,99N0744624,59W
    ELEV 16,33 M. H24, 06 FEB 19:44 2017 UNTIL 18 MAY 23:59 2017.
    CREATED: 06 FEB 19:49 2017

SKBQ A0428/17 MOV AREA WIP, PRESENCE OF PERSONAL AND EQPT, EXER
    CTN. H24, 11 FEB 14:26 2017 UNTIL 17 APR 23:59 2017. CREATED:
    11 FEB 14:33 2017

SKBQ A0450/17 FREQ 118,1 MHZ ERNESTO CORTISSOZ TWR U/S OPR FREQ
    ALTN 118.45 MHZ. H24, 13 FEB 14:10 2017 UNTIL 16 MAY 23:59
    2017 ESTIMATED. CREATED: 13 FEB 14:14 2017

SKBQ A0513/17 APN ASPHALT RELEASE, EXER CTN. 21 FEB 16:40 2017
    UNTIL 22 MAY 23:59 2017 ESTIMATED. CREATED: 21 FEB 16:46
    2017

SKBQ A0592/17 RWY 05/23 CLSD NO AUTH TO MODIFICATION OPS CLSD.
    APR 01,02,03,04,05,06,07,08,09,10,11,12,17, 18,19,20,21,22,23,24,25
    BTN 0530-1100, 01 APR 05:30 2017 UNTIL 25 APR 11:00 2017.
    CREATED: 28 FEB 16:41 2017

SKBQ A0628/17 ILS/LLZ IBAQ FREQ 109.9 MHZ U/S. H24, 03 MAR 14:00
    2017 UNTIL 31 MAY 22:00 2017. CREATED: 03 MAR 05:10 2017

SKBQ A0629/17 IAP ILS-Z RWY 05 NOT AVBL IAP ILS-Y RWY 05 NOT
    AVBL IAP LOC RWY 05 NOT AVBL. H24, 03 MAR 14:00 2017 UNTIL
    31 MAY 22:00 2017. CREATED: 03 MAR 05:14 2017

SKBQ A0642/17 TWY G BTN CARGO APN AND TWY B REUBICATION TEST
    OF ENG ON COORD: 105337,89N0744624,81W ONLY ACFT CAT A, B.
    DLY BTN 1200-2200, 04 MAR 13:58 2017 UNTIL 06 MAY 22:00 2017.
    CREATED: 04 MAR 14:02 2017

SKBQ A0682/17 INT TWY A Y TWY B CLSD. DLY BTN 0400-1030, 10 MAR
    04:00 2017 UNTIL 31 MAR 10:30 2017. CREATED: 09 MAR 13:34
    2017

SKBQ A0712/17 RWY 05/23 CLSD MODIFICATIONS ARE NOT AUTH. MAR
    11 BTN 0600-1100 MAR 12,13,14,15,16,17,18,21,22 23,24,25,26,27,28,29,30,31
    BTN 0530-1100, 11 MAR 06:00 2017 UNTIL 31 MAR 11:00 2017.
    CREATED: 11 MAR 04:41 2017

SKBQ A0739/17 ACFT STAND NR 6 CLSD. H24, 13 MAR 15:31 2017 UNTIL
    13 MAR 23:59 2018. CREATED: 13 MAR 15:32 2017

SKBQ A0804/17 TWY D BTN RWY 05/23 AND TWY PARL CLSD. H24, 23
    MAR 13:20 2017 UNTIL 24 MAR 23:59 2017. CREATED: 23 MAR 13:36
    2017

SKBQ A2283/09 VOR BAQ FREQ 113.7 MHZ, U/S 27 SEP 23:38 UNTIL
    29 SEP 23:00 ESTIMATED H24

SKBQ A4668/16 PARL A BTN TWY C AND TWY D RELOCATED ENG TEST COORD
    105314.036N 0744649,377W ONLY ACFT CAT C AND D. 0400-1100,
    14 DEC 04:00 2016 UNTIL 31 MAR 11:00 2017. CREATED: 13 DEC
    14:26 2016

SKBQ C2117/09 TWY I OPR UNICAMENTE AVIACION MIL. H24, 31 MAY
    00:22 2009 UNTIL PERM. CREATED: 31 MAY 00:24 2009

SKBQ C4395/09 RVR 05, U/S 04 NOV 21:10 UNTIL 11 NOV 23:00 ESTIMATED

SKBQ F2452/10 [DEFENSE ENERGY SUPPORT CENTER ADVISORY] FUEL AVAILABILITY
    HOURS OF SERVICE ARE: MONDAY - FRIDAY 0600 -2200 LOCAL TIME.
    SATURDAY AND SUNDAY 08:30 -1830 LOCAL TIME. DESC DUTY OFFICER'S
    TELEPHONE NUMBER 703-767-8420, DSN 427-8420. 04 OCT 29:18
    2020 UNTIL 07 OCT 28:18 2020

---------------------------------------------------------------------------